Edi Upper Vineyard, Victoria

4:49 AM AEST on May 06, 2015 (GMT +1000)
Porepunkah | | Change Station
CLOSE
Current Station
Personal Weather Station
Location: Porepunkah, VICTORIA
Elevation: 938 ft
Nearby Weather Stations

Elev 938 ft 36.70 °S, 146.92 °E | Updated 5 minutes ago

Clear
Clear
48.0 °F
Feels Like 45 °F
N
6.0
Wind Variable Wind from NW
Gusts 10.0 mph

Today
High -- | Low -- °F
--% Chance of Precip.
Yesterday
High -- | Low -- °F
Precip. -- in
6:56 AM 5:24 PM
Full, 97% visible
Pressure 29.92 in
Visibility 6.2 miles
Clouds
Windchill 45 °F
Dew Point 40 °F
Humidity 75%
Rainfall 0.00 in
Snow Depth Not available.
UV Not available.
Pollen Not available.
Air Quality Not available.
Flu Activity Not available.
METAR YMAY 051800Z AUTO 00000KT 9999 // NCD 04/02 Q1013

More Conditions Fewer Conditions

Pressure 29.92 in
Visibility 6.2 miles
Clouds
Windchill 45 °F
Dew Point 40 °F
Humidity 75%
Rainfall 0.00 in
Snow Depth Not available.
UV Not available.
Pollen Not available.
Air Quality Not available.
Flu Activity Not available.
METAR YMAY 051800Z AUTO 00000KT 9999 // NCD 04/02 Q1013

More Conditions Fewer Conditions

10-Day Weather Forecast

Almanac

Astronomy

May. 06, 2015 Rise Set
Actual Time
Civil Twilight
Nautical Twilight
Astronomical Twilight
Moon
Length of Visible Light
Length of Day
Tomorrow will be .
, % of the Moon is Illuminated

Today's Extremes

Country Highs Country Lows

Community

WunderPhotos

Upload Photos

1,818,953 photos uploaded!

WunderBlogs® & News

Nearby

Air Quality

  Air Quality AQ Index Pollutant
Not available.

Snow Depth

Station Depth Elevation

Earthquake Activity

City Distance Mag. Time & Date
Minimum magnitude displayed is 2.5.

Coastal Water Temperatures

Place Temperature

Stations

Nearby Weather Stations

Station Location Temp. Windchill Dew Point Humidity Wind Precip. Elev Updated Type